Big Bear Station Historical Data
Daily Summary for January 23, 2019 Units:  Both    English   Metric
Next Day »
Daily Weekly Monthly Yearly Custom
  High: Low: Average:
Temperature: 55.8 °F /  13.2 °C 24.4 °F /  -4.2 °C 35.3 °F /  1.8 °C
Dew Point: 24.4 °F /  -4.2 °C -2.5 °F /  -19.2 °C 13 °F /  -10.6 °C
Humidity: 79% 21% 42%
Wind Speed: 4.2mph /  6.8km/h - 0.6mph /  1km/h
Wind Gust: -999.0mph /  -1607.7km/h - -
Wind- - SW
Pressure: 23.72 in /  803.2 hPa 23.62 in /  799.8 hPa -
Precipitation: 0.07 in /  1.78 mm    
Historical Graphs
 
 
Tabular Data for January 23, 2019
Time Temperature Dew Point Pressure Wind Wind Speed Wind Gust Humidity Rainfall Rate (Hourly)
00:07 24.4 °F /  -4.2 °C 0.6 °F /  -17.4 °C 23.68in /  801.8hPa South 2.7mph /  4.3km/h -999.0mph /  -1607.7km/h 35% 0.00in /  0mm
00:22 25.0 °F /  -3.9 °C 1.8 °F /  -16.8 °C 23.68in /  801.8hPa Calm   -999.0mph /  -1607.7km/h 36% 0.00in /  0mm
00:37 25.2 °F /  -3.8 °C -1.2 °F /  -18.4 °C 23.68in /  801.8hPa Calm   -999.0mph /  -1607.7km/h 31% 0.00in /  0mm
00:52 25.3 °F /  -3.7 °C 3.2 °F /  -16 °C 23.68in /  801.8hPa SSE 2.2mph /  3.5km/h -999.0mph /  -1607.7km/h 38% 0.00in /  0mm
01:08 25.3 °F /  -3.7 °C 0.8 °F /  -17.3 °C 23.68in /  801.8hPa SSE 1.7mph /  2.7km/h -999.0mph /  -1607.7km/h 34% 0.00in /  0mm
01:23 25.2 °F /  -3.8 °C -1.9 °F /  -18.8 °C 23.68in /  801.8hPa Calm   -999.0mph /  -1607.7km/h 30% 0.00in /  0mm
01:38 25.0 °F /  -3.9 °C 4.6 °F /  -15.2 °C 23.69in /  802.1hPa Calm   -999.0mph /  -1607.7km/h 41% 0.00in /  0mm
01:54 26.2 °F /  -3.2 °C 3.4 °F /  -15.9 °C 23.68in /  801.8hPa South 2.7mph /  4.3km/h -999.0mph /  -1607.7km/h 37% 0.00in /  0mm
02:09 26.6 °F /  -3 °C 2.0 °F /  -16.7 °C 23.68in /  801.8hPa South 2.7mph /  4.3km/h -999.0mph /  -1607.7km/h 34% 0.00in /  0mm
02:25 26.2 °F /  -3.2 °C 2.2 °F /  -16.6 °C 23.68in /  801.8hPa South 2.2mph /  3.5km/h -999.0mph /  -1607.7km/h 35% 0.00in /  0mm
02:40 26.8 °F /  -2.9 °C -0.5 °F /  -18.1 °C 23.68in /  801.8hPa South 2.2mph /  3.5km/h -999.0mph /  -1607.7km/h 30% 0.00in /  0mm
02:55 27.0 °F /  -2.8 °C 0.3 °F /  -17.6 °C 23.68in /  801.8hPa South 2.7mph /  4.3km/h -999.0mph /  -1607.7km/h 31% 0.00in /  0mm
03:10 26.8 °F /  -2.9 °C -0.5 °F /  -18.1 °C 23.68in /  801.8hPa South 1.7mph /  2.7km/h -999.0mph /  -1607.7km/h 30% 0.00in /  0mm
03:25 26.8 °F /  -2.9 °C -2.0 °F /  -18.9 °C 23.68in /  801.8hPa Calm   -999.0mph /  -1607.7km/h 28% 0.00in /  0mm
03:41 27.5 °F /  -2.5 °C 0.1 °F /  -17.7 °C 23.68in /  801.8hPa South 2.7mph /  4.3km/h -999.0mph /  -1607.7km/h 30% 0.00in /  0mm
03:56 27.0 °F /  -2.8 °C -1.1 °F /  -18.4 °C 23.68in /  801.8hPa Calm   -999.0mph /  -1607.7km/h 29% 0.00in /  0mm
04:12 27.1 °F /  -2.7 °C -2.5 °F /  -19.2 °C 23.68in /  801.8hPa Calm   -999.0mph /  -1607.7km/h 27% 0.00in /  0mm
04:27 27.1 °F /  -2.7 °C 1.8 °F /  -16.8 °C 23.68in /  801.8hPa South 2.7mph /  4.3km/h -999.0mph /  -1607.7km/h 33% 0.00in /  0mm
04:43 27.0 °F /  -2.8 °C 2.3 °F /  -16.5 °C 23.67in /  801.5hPa Calm   -999.0mph /  -1607.7km/h 34% 0.00in /  0mm
04:58 26.8 °F /  -2.9 °C 0.8 °F /  -17.3 °C 23.68in /  801.8hPa Calm   -999.0mph /  -1607.7km/h 32% 0.00in /  0mm
05:13 27.0 °F /  -2.8 °C 3.6 °F /  -15.8 °C 23.68in /  801.8hPa SSE 4.2mph /  6.8km/h -999.0mph /  -1607.7km/h 36% 0.00in /  0mm
05:28 26.8 °F /  -2.9 °C 6.2 °F /  -14.3 °C 23.68in /  801.8hPa Calm   -999.0mph /  -1607.7km/h 41% 0.00in /  0mm
05:44 27.0 °F /  -2.8 °C 6.9 °F /  -13.9 °C 23.68in /  801.8hPa South 2.7mph /  4.3km/h -999.0mph /  -1607.7km/h 42% 0.00in /  0mm
05:59 27.1 °F /  -2.7 °C 4.2 °F /  -15.4 °C 23.69in /  802.1hPa Calm   -999.0mph /  -1607.7km/h 37% 0.00in /  0mm
06:14 27.0 °F /  -2.8 °C 8.5 °F /  -13.1 °C 23.69in /  802.1hPa Calm   -999.0mph /  -1607.7km/h 45% 0.00in /  0mm
06:29 27.0 °F /  -2.8 °C 6.4 °F /  -14.2 °C 23.69in /  802.1hPa Calm   -999.0mph /  -1607.7km/h 41% 0.00in /  0mm
06:44 28.0 °F /  -2.2 °C 6.8 °F /  -14 °C 23.69in /  802.1hPa South 2.7mph /  4.3km/h -999.0mph /  -1607.7km/h 40% 0.00in /  0mm
07:00 28.0 °F /  -2.2 °C 5.1 °F /  -14.9 °C 23.69in /  802.1hPa Calm   -999.0mph /  -1607.7km/h 37% 0.00in /  0mm
07:15 28.0 °F /  -2.2 °C 6.2 °F /  -14.3 °C 23.70in /  802.5hPa Calm   -999.0mph /  -1607.7km/h 39% 0.00in /  0mm
07:30 28.2 °F /  -2.1 °C 4.6 °F /  -15.2 °C 23.70in /  802.5hPa Calm   -999.0mph /  -1607.7km/h 36% 0.00in /  0mm
07:45 28.2 °F /  -2.1 °C 5.2 °F /  -14.9 °C 23.70in /  802.5hPa Calm   -999.0mph /  -1607.7km/h 37% 0.00in /  0mm
08:00 28.9 °F /  -1.7 °C 11.7 °F /  -11.3 °C 23.71in /  802.8hPa Calm   -999.0mph /  -1607.7km/h 48% 0.00in /  0mm
08:16 29.8 °F /  -1.2 °C 7.8 °F /  -13.4 °C 23.71in /  802.8hPa Calm   -999.0mph /  -1607.7km/h 39% 0.00in /  0mm
08:31 29.8 °F /  -1.2 °C 10.0 °F /  -12.2 °C 23.71in /  802.8hPa Calm   -999.0mph /  -1607.7km/h 43% 0.00in /  0mm
08:46 32.9 °F /  0.5 °C 12.8 °F /  -10.7 °C 23.72in /  803.2hPa Calm   -999.0mph /  -1607.7km/h 43% 0.00in /  0mm
09:01 34.3 °F /  1.3 °C 15.1 °F /  -9.4 °C 23.71in /  802.8hPa Calm   -999.0mph /  -1607.7km/h 45% 0.00in /  0mm
09:16 36.5 °F /  2.5 °C 16.6 °F /  -8.6 °C 23.72in /  803.2hPa Calm   -999.0mph /  -1607.7km/h 44% 0.00in /  0mm
09:32 38.1 °F /  3.4 °C 18.6 °F /  -7.4 °C 23.72in /  803.2hPa Calm   -999.0mph /  -1607.7km/h 45% 0.00in /  0mm
09:47 40.3 °F /  4.6 °C 20.6 °F /  -6.3 °C 23.71in /  802.8hPa Calm   -999.0mph /  -1607.7km/h 45% 0.00in /  0mm
10:02 42.4 °F /  5.8 °C 20.9 °F /  -6.2 °C 23.72in /  803.2hPa WNW 1.1mph /  1.8km/h -999.0mph /  -1607.7km/h 42% 0.00in /  0mm
10:17 44.8 °F /  7.1 °C 22.5 °F /  -5.3 °C 23.71in /  802.8hPa Calm   -999.0mph /  -1607.7km/h 41% 0.00in /  0mm
10:33 45.5 °F /  7.5 °C 23.1 °F /  -4.9 °C 23.71in /  802.8hPa WNW 1.7mph /  2.7km/h -999.0mph /  -1607.7km/h 41% 0.00in /  0mm
10:48 47.1 °F /  8.4 °C 24.0 °F /  -4.4 °C 23.71in /  802.8hPa Calm   -999.0mph /  -1607.7km/h 40% 0.00in /  0mm
11:03 48.9 °F /  9.4 °C 24.4 °F /  -4.2 °C 23.71in /  802.8hPa Calm   -999.0mph /  -1607.7km/h 38% 0.00in /  0mm
11:18 49.6 °F /  9.8 °C 24.4 °F /  -4.2 °C 23.71in /  802.8hPa Calm   -999.0mph /  -1607.7km/h 37% 0.00in /  0mm
11:33 51.3 °F /  10.7 °C 23.9 °F /  -4.5 °C 23.70in /  802.5hPa Calm   -999.0mph /  -1607.7km/h 34% 0.00in /  0mm
11:49 52.2 °F /  11.2 °C 20.0 °F /  -6.7 °C 23.69in /  802.1hPa Calm   -999.0mph /  -1607.7km/h 28% 0.00in /  0mm
12:04 52.3 °F /  11.3 °C 20.1 °F /  -6.6 °C 23.68in /  801.8hPa NW 2.7mph /  4.3km/h -999.0mph /  -1607.7km/h 28% 0.00in /  0mm
12:19 52.9 °F /  11.6 °C 17.1 °F /  -8.3 °C 23.68in /  801.8hPa Calm   -999.0mph /  -1607.7km/h 24% 0.00in /  0mm
12:34 54.0 °F /  12.2 °C 14.9 °F /  -9.5 °C 23.67in /  801.5hPa Calm   -999.0mph /  -1607.7km/h 21% 0.00in /  0mm
12:50 53.1 °F /  11.7 °C 17.2 °F /  -8.2 °C 23.66in /  801.1hPa Calm   -999.0mph /  -1607.7km/h 24% 0.00in /  0mm
13:05 55.8 °F /  13.2 °C 18.5 °F /  -7.5 °C 23.66in /  801.1hPa Calm   -999.0mph /  -1607.7km/h 23% 0.00in /  0mm
13:20 53.6 °F /  12 °C 19.5 °F /  -6.9 °C 23.66in /  801.1hPa Calm   -999.0mph /  -1607.7km/h 26% 0.00in /  0mm
13:36 52.9 °F /  11.6 °C 15.0 °F /  -9.4 °C 23.65in /  800.8hPa NW 2.2mph /  3.5km/h -999.0mph /  -1607.7km/h 22% 0.00in /  0mm
13:51 52.3 °F /  11.3 °C 13.5 °F /  -10.3 °C 23.64in /  800.5hPa NW 2.7mph /  4.3km/h -999.0mph /  -1607.7km/h 21% 0.00in /  0mm
14:06 51.6 °F /  10.9 °C 15.0 °F /  -9.4 °C 23.64in /  800.5hPa NNW 4.2mph /  6.8km/h -999.0mph /  -1607.7km/h 23% 0.00in /  0mm
14:22 50.7 °F /  10.4 °C 15.2 °F /  -9.3 °C 23.64in /  800.5hPa NW 3.2mph /  5.1km/h -999.0mph /  -1607.7km/h 24% 0.00in /  0mm
14:37 50.4 °F /  10.2 °C 16.8 °F /  -8.4 °C 23.64in /  800.5hPa Calm   -999.0mph /  -1607.7km/h 26% 0.00in /  0mm
14:52 49.8 °F /  9.9 °C 14.4 °F /  -9.8 °C 23.63in /  800.1hPa WNW 3.2mph /  5.1km/h -999.0mph /  -1607.7km/h 24% 0.00in /  0mm
15:07 49.8 °F /  9.9 °C 19.6 °F /  -6.9 °C 23.63in /  800.1hPa Calm   -999.0mph /  -1607.7km/h 30% 0.00in /  0mm
15:23 48.7 °F /  9.3 °C 21.6 °F /  -5.8 °C 23.63in /  800.1hPa Calm   -999.0mph /  -1607.7km/h 34% 0.00in /  0mm
15:38 48.0 °F /  8.9 °C 18.0 °F /  -7.8 °C 23.62in /  799.8hPa Calm   -999.0mph /  -1607.7km/h 30% 0.00in /  0mm
15:53 47.1 °F /  8.4 °C 18.7 °F /  -7.4 °C 23.62in /  799.8hPa Calm   -999.0mph /  -1607.7km/h 32% 0.00in /  0mm
16:09 46.2 °F /  7.9 °C 17.9 °F /  -7.8 °C 23.62in /  799.8hPa Calm   -999.0mph /  -1607.7km/h 32% 0.00in /  0mm
16:24 45.3 °F /  7.4 °C 17.9 °F /  -7.8 °C 23.63in /  800.1hPa Calm   -999.0mph /  -1607.7km/h 33% 0.00in /  0mm
16:39 44.8 °F /  7.1 °C 15.2 °F /  -9.3 °C 23.63in /  800.1hPa Calm   -999.0mph /  -1607.7km/h 30% 0.00in /  0mm
16:54 43.7 °F /  6.5 °C 16.5 °F /  -8.6 °C 23.63in /  800.1hPa Calm   -999.0mph /  -1607.7km/h 33% 0.00in /  0mm
17:09 42.8 °F /  6 °C 15.7 °F /  -9.1 °C 23.63in /  800.1hPa Calm   -999.0mph /  -1607.7km/h 33% 0.00in /  0mm
17:25 41.0 °F /  5 °C 17.9 °F /  -7.8 °C 23.63in /  800.1hPa Calm   -999.0mph /  -1607.7km/h 39% 0.00in /  0mm
17:40 39.6 °F /  4.2 °C 15.4 °F /  -9.2 °C 23.62in /  799.8hPa Calm   -999.0mph /  -1607.7km/h 37% 0.00in /  0mm
17:55 37.8 °F /  3.2 °C 19.4 °F /  -7 °C 23.62in /  799.8hPa Calm   -999.0mph /  -1607.7km/h 47% 0.00in /  0mm
18:10 36.5 °F /  2.5 °C 18.7 °F /  -7.4 °C 23.62in /  799.8hPa Calm   -999.0mph /  -1607.7km/h 48% 0.00in /  0mm
18:26 35.2 °F /  1.8 °C 17.5 °F /  -8.1 °C 23.63in /  800.1hPa Calm   -999.0mph /  -1607.7km/h 48% 0.00in /  0mm
18:41 34.3 °F /  1.3 °C 17.1 °F /  -8.3 °C 23.64in /  800.5hPa Calm   -999.0mph /  -1607.7km/h 49% 0.00in /  0mm
18:56 33.8 °F /  1 °C 19.3 °F /  -7.1 °C 23.64in /  800.5hPa Calm   -999.0mph /  -1607.7km/h 55% 0.00in /  0mm
19:11 32.5 °F /  0.3 °C 18.5 °F /  -7.5 °C 23.63in /  800.1hPa Calm   -999.0mph /  -1607.7km/h 56% 0.00in /  0mm
19:26 32.0 °F /  0 °C 18.5 °F /  -7.5 °C 23.64in /  800.5hPa Calm   -999.0mph /  -1607.7km/h 57% 0.00in /  0mm
19:42 31.3 °F /  -0.4 °C 19.4 °F /  -7 °C 23.64in /  800.5hPa Calm   -999.0mph /  -1607.7km/h 61% 0.00in /  0mm
19:57 30.6 °F /  -0.8 °C 18.7 °F /  -7.4 °C 23.64in /  800.5hPa Calm   -999.0mph /  -1607.7km/h 61% 0.00in /  0mm
20:12 30.0 °F /  -1.1 °C 18.9 °F /  -7.3 °C 23.64in /  800.5hPa Calm   -999.0mph /  -1607.7km/h 63% 0.00in /  0mm
20:27 29.7 °F /  -1.3 °C 18.3 °F /  -7.6 °C 23.63in /  800.1hPa Calm   -999.0mph /  -1607.7km/h 62% 0.00in /  0mm
20:42 29.3 °F /  -1.5 °C 18.6 °F /  -7.4 °C 23.64in /  800.5hPa Calm   -999.0mph /  -1607.7km/h 64% 0.00in /  0mm
20:58 28.8 °F /  -1.8 °C 19.6 °F /  -6.9 °C 23.64in /  800.5hPa Calm   -999.0mph /  -1607.7km/h 68% 0.00in /  0mm
21:13 28.6 °F /  -1.9 °C 18.0 °F /  -7.8 °C 23.64in /  800.5hPa Calm   -999.0mph /  -1607.7km/h 64% 0.00in /  0mm
21:28 28.0 °F /  -2.2 °C 19.1 °F /  -7.2 °C 23.64in /  800.5hPa Calm   -999.0mph /  -1607.7km/h 69% 0.00in /  0mm
21:43 27.3 °F /  -2.6 °C 18.5 °F /  -7.5 °C 23.64in /  800.5hPa Calm   -999.0mph /  -1607.7km/h 69% 0.00in /  0mm
21:58 27.1 °F /  -2.7 °C 18.9 °F /  -7.3 °C 23.64in /  800.5hPa Calm   -999.0mph /  -1607.7km/h 71% 0.00in /  0mm
22:14 27.0 °F /  -2.8 °C 20.8 °F /  -6.2 °C 23.64in /  800.5hPa Calm   -999.0mph /  -1607.7km/h 77% 0.00in /  0mm
22:29 26.8 °F /  -2.9 °C 20.6 °F /  -6.3 °C 23.65in /  800.8hPa Calm   -999.0mph /  -1607.7km/h 77% 0.00in /  0mm
22:44 26.6 °F /  -3 °C 20.7 °F /  -6.3 °C 23.65in /  800.8hPa Calm   -999.0mph /  -1607.7km/h 78% 0.00in /  0mm
22:59 26.4 °F /  -3.1 °C 20.8 °F /  -6.2 °C 23.65in /  800.8hPa Calm   -999.0mph /  -1607.7km/h 79% 0.00in /  0mm
23:15 25.9 °F /  -3.4 °C 19.7 °F /  -6.8 °C 23.65in /  800.8hPa Calm   -999.0mph /  -1607.7km/h 77% 0.00in /  0mm
23:30 25.9 °F /  -3.4 °C 20.0 °F /  -6.7 °C 23.65in /  800.8hPa Calm   -999.0mph /  -1607.7km/h 78% 0.00in /  0mm
23:45 25.7 °F /  -3.5 °C 19.5 °F /  -6.9 °C 23.65in /  800.8hPa Calm   -999.0mph /  -1607.7km/h 77% 0.00in /  0mm
Big Bear CA Weather